Detall de PIREP

Printer-friendly versionPDF version

[2008/10/17 20:40:00]
Flight IATA:CT3300
Pilot Number:011
Company ICAO:CAT
Aircraft Type:B738/F
PAX:160
Departing Airport: LEZG
Destination Airport: DAAG
Alternate Airport:DAAE
Online: VATSIM
Route:PONEN UW800 CASPE UN860 VLC UM134 IZA UN856 SADAF/N0450F250
Flight Level:FL350
No Slew and time accel
No pause
Crash detect
Detect pilot in Cockpit between each 30 and 45 minutes
20:40 Zero fuel Weight: 134301 Lbs, Fuel Weight: 17846 Lbs
20:40 VATSIM:LEZG 172030Z 26003KT 9999 SCT040 BKN070 18/17 Q1016
20:40 VATSIM:DAAG 172000Z 17003KT CAVOK 18/15 Q1018
20:41 Parking Brakes off
20:51 Take-off
20:51 Take off Weight: 151397 Lbs
20:51 Wind: 263 @ 003 Knots Heading: 299
20:51 POS N41 39 48 W001 01 37
20:51 Flaps:5 at 183 Knots
20:51 Gear Up: 186 Knots
20:52 Flaps:4 at 217 Knots
20:52 Flaps:3 at 217 Knots
20:52 Flaps:2 at 218 Knots
20:52 Flaps:1 at 220 Knots
21:0
6 Wind:291@002 Knots Heading: 100 Ground Speed: 398 Knots Altitude 29333 ft
21:10 TOC
21:10 Fuel Weight: 13508 Lb
21:18 Flaps:0 at 279 Knots
21:21 Wind:330@012 Knots Heading: 185 Ground Speed: 474 Knots Altitude 34983 ft
21:36 Wind:030@003 Knots Heading: 150 Ground Speed: 468 Knots Altitude 35003 ft
21:38 TOD
21:38 Fuel Weight: 10912 Lb
21:51 Wind:194@001 Knots Heading: 184 Ground Speed: 375 Knots Altitude 9780 ft
21:58 Flaps:1 at 249 Knots
21:58 Flaps:2 at 247 Knots
21:59 Flaps:3 at 232 Knots
21:59 Flaps:4 at 223 Knots
22:00 Flaps:5 at 218 Knots
22:00 Flaps:6 at 204 Knots
22:01 Gear Down: 200 Knots
22:01 Flaps:7 at 171 Knots
22:02 Flaps:8 at 156 Knots
22:03 TouchDown:Rate -263 ft/min Speed: 120 Knots
22:04 VATSIM:DAAG 172100Z 16001KT CAVOK 17/14 Q1019
22:04 Land
22:04 Wind:162@001 Knots
22:04 Heading: 092
22:04 Flight Duration: 01:13
22:04
Landing Weight: 144099 Lbs
22:04 POS N36 41 29 E003 11 15
22:07 Parking brakes on
22:07 Block to Block Duration: 01:26
22:07 Final Fuel: 9576 Lbls
22:07 Spent Fuel: 8269 Lbls
22:07 Flight Length: 387 NM
22:07 TOD Land Length: 58 NM

Exportar CSV

Powered by Drupal - Modified by Danger4k